createdAt,value
2023-05-18T00:01:17.320Z,79.87
2023-05-18T00:03:45.402Z,80.08
2023-05-18T00:06:14.614Z,79.92
2023-05-18T00:08:42.373Z,80.00
2023-05-18T00:11:10.361Z,80.12
2023-05-18T00:13:38.121Z,79.80
2023-05-18T00:16:06.614Z,80.11
2023-05-18T00:18:34.690Z,79.96
2023-05-18T00:21:02.633Z,80.03
2023-05-18T00:23:33.106Z,80.12
2023-05-18T00:26:02.460Z,80.07
2023-05-18T00:28:30.561Z,80.01
2023-05-18T00:31:00.445Z,79.83
2023-05-18T00:33:28.556Z,80.25
2023-05-18T00:35:57.341Z,80.14
2023-05-18T00:38:25.150Z,79.99
2023-05-18T00:40:54.335Z,80.18
2023-05-18T00:43:22.118Z,80.01
2023-05-18T00:45:49.921Z,80.00
2023-05-18T00:48:17.883Z,80.33
2023-05-18T00:50:46.131Z,80.12
2023-05-18T00:53:14.782Z,80.32
2023-05-18T00:55:43.176Z,80.17
2023-05-18T00:58:14.312Z,80.04
2023-05-18T01:00:44.294Z,80.06
2023-05-18T01:03:15.310Z,80.22
2023-05-18T01:05:43.364Z,80.17
2023-05-18T01:08:11.275Z,80.22
2023-05-18T01:10:42.159Z,80.13
2023-05-18T01:13:19.418Z,80.49
2023-05-18T01:15:52.688Z,80.06
2023-05-18T01:18:29.183Z,80.60
2023-05-18T01:21:01.465Z,80.37
2023-05-18T01:23:53.294Z,80.17
2023-05-18T01:26:29.974Z,80.40
2023-05-18T01:29:00.597Z,80.13
2023-05-18T01:31:28.968Z,80.40
2023-05-18T01:33:56.865Z,80.28
2023-05-18T01:36:24.730Z,80.17
2023-05-18T01:38:53.718Z,80.47
2023-05-18T01:41:25.758Z,80.36
2023-05-18T01:43:59.858Z,80.48
2023-05-18T01:46:37.656Z,80.35
2023-05-18T01:49:11.331Z,80.05
2023-05-18T01:51:45.253Z,80.29
2023-05-18T01:54:18.658Z,80.62
2023-05-18T01:56:51.888Z,80.47
2023-05-18T01:59:20.688Z,80.56
2023-05-18T02:01:48.602Z,80.34
2023-05-18T02:04:16.792Z,80.57
2023-05-18T02:06:44.680Z,80.78
2023-05-18T02:09:12.706Z,80.86
2023-05-18T02:11:40.490Z,80.50
2023-05-18T02:14:09.700Z,80.53
2023-05-18T02:16:37.648Z,80.50
2023-05-18T02:19:05.558Z,80.70
2023-05-18T02:21:34.705Z,80.44
2023-05-18T02:24:02.596Z,80.64
2023-05-18T02:26:31.084Z,80.33
2023-05-18T02:28:58.882Z,80.92
2023-05-18T02:31:29.597Z,80.63
2023-05-18T02:33:58.205Z,80.48
2023-05-18T02:36:26.591Z,80.20
2023-05-18T02:38:54.406Z,80.29
2023-05-18T02:41:22.863Z,80.77
2023-05-18T02:43:50.619Z,80.85
2023-05-18T02:46:18.438Z,80.79
2023-05-18T02:48:48.053Z,80.41
2023-05-18T02:51:15.956Z,80.65
2023-05-18T02:53:44.975Z,80.50
2023-05-18T02:56:14.497Z,80.53
2023-05-18T02:58:43.683Z,80.79
2023-05-18T03:01:12.285Z,80.62
2023-05-18T03:03:42.304Z,80.66
2023-05-18T03:06:12.107Z,80.91
2023-05-18T03:08:41.119Z,80.60
2023-05-18T03:11:08.943Z,80.66
2023-05-18T03:13:36.695Z,80.79
2023-05-18T03:16:05.391Z,81.03
2023-05-18T03:18:33.303Z,80.89
2023-05-18T03:21:02.159Z,80.94
2023-05-18T03:23:31.682Z,80.66
2023-05-18T03:25:59.469Z,80.84
2023-05-18T03:28:27.309Z,81.06
2023-05-18T03:30:55.107Z,80.92
2023-05-18T03:33:22.992Z,81.12
2023-05-18T03:35:52.406Z,80.92
2023-05-18T03:38:20.315Z,81.11
2023-05-18T03:40:49.719Z,81.16
2023-05-18T03:43:17.474Z,81.08
2023-05-18T03:45:45.360Z,81.07
2023-05-18T03:48:13.231Z,81.15
2023-05-18T03:50:41.744Z,81.00
2023-05-18T03:53:09.490Z,81.21
2023-05-18T03:55:37.300Z,81.16
2023-05-18T03:58:07.727Z,81.01
2023-05-18T04:00:36.589Z,81.22
2023-05-18T04:03:04.971Z,81.15
2023-05-18T04:05:33.433Z,81.30
2023-05-18T04:08:01.391Z,81.17
2023-05-18T04:10:29.267Z,81.32
2023-05-18T04:12:57.229Z,81.41
2023-05-18T04:15:26.505Z,81.34
2023-05-18T04:17:54.393Z,81.03
2023-05-18T04:20:22.168Z,81.66
2023-05-18T04:22:50.214Z,81.60
2023-05-18T04:25:18.775Z,81.21
2023-05-18T04:27:49.802Z,81.49
2023-05-18T04:30:22.614Z,81.26
2023-05-18T04:32:51.928Z,81.65
2023-05-18T04:35:19.787Z,82.04
2023-05-18T04:37:47.637Z,81.77
2023-05-18T04:40:17.220Z,81.24
2023-05-18T04:42:47.697Z,81.58
2023-05-18T04:45:17.807Z,81.88
2023-05-18T04:47:47.180Z,81.33
2023-05-18T04:50:18.280Z,81.12
2023-05-18T04:52:49.189Z,81.34
2023-05-18T04:55:23.005Z,81.35
2023-05-18T04:57:53.971Z,81.68
2023-05-18T05:00:22.398Z,81.44
2023-05-18T05:02:50.354Z,81.46
2023-05-18T05:05:19.817Z,81.81
2023-05-18T05:07:55.740Z,81.52
2023-05-18T05:10:23.894Z,81.50
2023-05-18T05:12:52.095Z,81.82
2023-05-18T05:15:20.442Z,81.49
2023-05-18T05:17:48.564Z,81.82
2023-05-18T05:20:16.610Z,81.68
2023-05-18T05:22:45.918Z,81.63
2023-05-18T05:25:13.994Z,81.75
2023-05-18T05:27:41.944Z,81.53
2023-05-18T05:30:10.646Z,81.59
2023-05-18T05:32:38.438Z,81.31
2023-05-18T05:35:07.343Z,81.58
2023-05-18T05:37:38.591Z,81.54
2023-05-18T05:40:10.020Z,80.83
2023-05-18T05:42:37.964Z,81.62
2023-05-18T05:45:06.997Z,81.38
2023-05-18T05:47:34.842Z,81.75
2023-05-18T05:50:02.703Z,81.10
2023-05-18T05:52:30.527Z,81.05
2023-05-18T05:54:58.590Z,81.53
2023-05-18T05:57:27.717Z,80.87
2023-05-18T05:59:55.727Z,81.71
2023-05-18T06:02:23.630Z,81.09
2023-05-18T06:04:51.450Z,80.89
2023-05-18T06:07:20.295Z,81.39
2023-05-18T06:09:48.705Z,80.63
2023-05-18T06:12:16.501Z,81.50
2023-05-18T06:14:45.845Z,81.41
2023-05-18T06:17:13.644Z,81.28
2023-05-18T06:19:41.461Z,81.24
2023-05-18T06:22:09.467Z,80.80
2023-05-18T06:24:37.438Z,81.10
2023-05-18T06:27:05.824Z,80.84
2023-05-18T06:29:33.686Z,80.64
2023-05-18T06:32:03.053Z,80.89
2023-05-18T06:34:30.869Z,80.44
2023-05-18T06:36:59.171Z,80.45
2023-05-18T06:39:26.951Z,80.57
2023-05-18T06:41:54.802Z,80.57
2023-05-18T06:44:22.731Z,80.61
2023-05-18T06:46:50.473Z,80.40
2023-05-18T06:49:19.810Z,80.44
2023-05-18T06:51:47.567Z,80.41
2023-05-18T06:54:15.383Z,80.25
2023-05-18T06:56:43.359Z,80.15
2023-05-18T06:59:11.177Z,80.25
2023-05-18T07:01:39.148Z,80.11
2023-05-18T07:04:07.787Z,80.04
2023-05-18T07:06:38.337Z,79.72
2023-05-18T07:09:08.073Z,79.78
2023-05-18T07:11:35.884Z,79.69
2023-05-18T07:14:05.637Z,79.64
2023-05-18T07:16:33.739Z,79.50
2023-05-18T07:19:01.572Z,79.41
2023-05-18T07:21:29.385Z,79.24
2023-05-18T07:23:58.644Z,79.18
2023-05-18T07:26:26.580Z,79.16
2023-05-18T07:28:54.439Z,79.24
2023-05-18T07:31:22.597Z,78.92
2023-05-18T07:33:50.649Z,78.88
2023-05-18T07:36:18.552Z,78.77
2023-05-18T07:38:46.505Z,78.96
2023-05-18T07:41:15.832Z,78.95
2023-05-18T07:43:43.651Z,78.58
2023-05-18T07:46:11.492Z,78.63
2023-05-18T07:48:41.008Z,78.29
2023-05-18T07:51:09.158Z,78.55
2023-05-18T07:53:38.101Z,78.28
2023-05-18T07:56:07.037Z,78.05
2023-05-18T07:58:36.711Z,78.13
2023-05-18T08:01:04.964Z,77.91
2023-05-18T08:03:32.967Z,77.72
2023-05-18T08:06:01.406Z,77.63
2023-05-18T08:08:29.929Z,77.75
2023-05-18T08:10:59.098Z,77.50
2023-05-18T08:13:28.536Z,77.76
2023-05-18T08:16:10.337Z,77.24
2023-05-18T08:18:38.766Z,77.39
2023-05-18T08:21:08.230Z,76.99
2023-05-18T08:23:36.083Z,76.88
2023-05-18T08:26:04.463Z,77.04
2023-05-18T08:28:32.679Z,76.93
2023-05-18T08:31:01.894Z,76.49
2023-05-18T08:33:29.781Z,76.64
2023-05-18T08:35:57.672Z,76.57
2023-05-18T08:38:25.606Z,76.50
2023-05-18T08:41:01.358Z,76.41
2023-05-18T08:43:33.534Z,76.29
2023-05-18T08:46:08.671Z,76.14
2023-05-18T08:48:37.827Z,76.13
2023-05-18T08:51:07.606Z,75.89
2023-05-18T08:53:38.990Z,75.72
2023-05-18T08:56:07.343Z,75.62
2023-05-18T08:58:37.262Z,75.73
2023-05-18T09:01:06.934Z,75.37
2023-05-18T09:03:35.737Z,75.46
2023-05-18T09:06:04.594Z,75.41
2023-05-18T09:08:34.389Z,75.19
2023-05-18T09:11:04.446Z,74.97
2023-05-18T09:13:32.635Z,74.84
2023-05-18T09:16:00.490Z,74.75
2023-05-18T09:18:31.788Z,74.56
2023-05-18T09:20:59.868Z,74.36
2023-05-18T09:23:28.162Z,74.42
2023-05-18T09:25:56.411Z,74.12
2023-05-18T09:28:32.349Z,73.93
2023-05-18T09:31:00.248Z,73.72
2023-05-18T09:33:37.093Z,73.82
2023-05-18T09:36:06.619Z,73.62
2023-05-18T09:38:38.384Z,73.28
2023-05-18T09:41:11.201Z,73.44
2023-05-18T09:43:39.178Z,72.88
2023-05-18T09:46:08.129Z,72.67
2023-05-18T09:48:38.391Z,72.52
2023-05-18T09:51:07.894Z,72.69
2023-05-18T09:53:37.371Z,72.39
2023-05-18T09:56:09.650Z,72.35
2023-05-18T09:58:38.514Z,71.78
2023-05-18T10:01:06.598Z,71.55
2023-05-18T10:03:37.958Z,71.35
2023-05-18T10:06:07.921Z,71.14
2023-05-18T10:08:38.727Z,71.30
2023-05-18T10:11:07.085Z,71.19
2023-05-18T10:13:36.106Z,70.48
2023-05-18T10:16:05.909Z,70.60
2023-05-18T10:18:36.345Z,70.23
2023-05-18T10:21:06.962Z,70.23
2023-05-18T10:23:36.589Z,69.93
2023-05-18T10:26:07.262Z,69.75
2023-05-18T10:28:40.112Z,69.49
2023-05-18T10:31:09.217Z,69.42
2023-05-18T10:33:38.734Z,69.01
2023-05-18T10:36:10.119Z,69.07
2023-05-18T10:38:40.661Z,68.79
2023-05-18T10:41:09.019Z,68.50
2023-05-18T10:43:37.952Z,68.34
2023-05-18T10:46:08.541Z,68.16
2023-05-18T10:48:40.490Z,68.05
2023-05-18T10:51:09.738Z,67.73
2023-05-18T10:53:37.865Z,67.82
2023-05-18T10:56:07.249Z,67.28
2023-05-18T10:58:38.158Z,67.20
2023-05-18T11:01:10.274Z,67.18
2023-05-18T11:03:39.732Z,67.10
2023-05-18T11:06:10.879Z,66.95
2023-05-18T11:08:48.160Z,66.44
2023-05-18T11:11:19.545Z,66.26
2023-05-18T11:13:50.320Z,66.23
2023-05-18T11:16:19.493Z,66.12
2023-05-18T11:18:49.441Z,65.81
2023-05-18T11:21:29.957Z,65.29
2023-05-18T11:24:19.138Z,65.09
2023-05-18T11:26:48.242Z,64.83
2023-05-18T11:29:20.918Z,64.61
2023-05-18T11:31:50.523Z,64.50
2023-05-18T11:34:52.344Z,64.09
2023-05-18T11:37:51.806Z,63.95
2023-05-18T11:40:46.777Z,63.48
2023-05-18T11:43:21.962Z,63.62
2023-05-18T11:45:59.302Z,63.28
2023-05-18T11:48:30.036Z,63.14
2023-05-18T11:50:58.402Z,62.92
2023-05-18T11:53:28.389Z,62.66
2023-05-18T11:55:57.111Z,62.62
2023-05-18T11:58:26.141Z,62.29
2023-05-18T12:00:54.405Z,62.03
2023-05-18T12:03:25.151Z,62.04
2023-05-18T12:05:53.284Z,61.48
2023-05-18T12:08:21.793Z,61.84
2023-05-18T12:10:51.707Z,61.23
2023-05-18T12:13:19.626Z,61.32
2023-05-18T12:15:47.637Z,61.07
2023-05-18T12:18:15.614Z,60.70
2023-05-18T12:20:43.629Z,60.35
2023-05-18T12:23:11.475Z,60.14
2023-05-18T12:25:39.772Z,60.12
2023-05-18T12:28:09.582Z,60.02
2023-05-18T12:30:38.416Z,59.91
2023-05-18T12:33:07.103Z,59.60
2023-05-18T12:35:35.173Z,59.04
2023-05-18T12:38:03.416Z,58.91
2023-05-18T12:40:44.332Z,59.06
2023-05-18T12:43:14.161Z,58.95
2023-05-18T12:45:44.996Z,58.57
2023-05-18T12:48:15.068Z,58.20
2023-05-18T12:50:47.898Z,58.03
2023-05-18T12:53:15.948Z,57.94
2023-05-18T12:55:43.736Z,57.64
2023-05-18T12:58:16.577Z,57.21
2023-05-18T13:00:47.160Z,57.04
2023-05-18T13:03:17.804Z,56.87
2023-05-18T13:05:47.855Z,56.80
2023-05-18T13:08:18.070Z,56.81
2023-05-18T13:10:50.814Z,56.85
2023-05-18T13:13:22.531Z,56.33
2023-05-18T13:15:52.172Z,56.52
2023-05-18T13:18:20.641Z,56.15
2023-05-18T13:20:52.602Z,56.14
2023-05-18T13:23:22.562Z,55.65
2023-05-18T13:25:50.749Z,55.67
2023-05-18T13:28:20.210Z,55.40
2023-05-18T13:30:51.016Z,55.31
2023-05-18T13:33:19.443Z,54.96
2023-05-18T13:35:49.688Z,54.80
2023-05-18T13:38:17.677Z,54.53
2023-05-18T13:40:45.712Z,54.42
2023-05-18T13:43:14.084Z,54.30
2023-05-18T13:45:42.988Z,53.91
2023-05-18T13:48:12.531Z,53.86
2023-05-18T13:50:40.458Z,53.76
2023-05-18T13:53:08.318Z,53.44
2023-05-18T13:55:36.948Z,53.32
2023-05-18T13:58:04.824Z,53.07
2023-05-18T14:00:33.917Z,52.56
2023-05-18T14:03:02.769Z,52.83
2023-05-18T14:05:32.112Z,52.53
2023-05-18T14:08:00.047Z,52.32
2023-05-18T14:10:27.814Z,52.14
2023-05-18T14:12:55.732Z,51.79
2023-05-18T14:15:23.758Z,51.89
2023-05-18T14:17:51.698Z,51.73
2023-05-18T14:20:19.820Z,51.42
2023-05-18T14:22:49.249Z,50.85
2023-05-18T14:25:17.180Z,51.00
2023-05-18T14:27:45.974Z,50.63
2023-05-18T14:30:14.254Z,50.39
2023-05-18T14:32:43.245Z,50.20
2023-05-18T14:35:12.735Z,50.52
2023-05-18T14:37:40.585Z,50.45
2023-05-18T14:40:10.840Z,49.80
2023-05-18T14:42:38.697Z,49.98
2023-05-18T14:45:07.354Z,49.98
2023-05-18T14:47:35.374Z,49.33
2023-05-18T14:50:03.789Z,49.38
2023-05-18T14:52:31.652Z,49.55
2023-05-18T14:54:59.380Z,49.33
2023-05-18T14:57:28.622Z,48.96
2023-05-18T14:59:56.480Z,48.71
2023-05-18T15:02:24.319Z,48.62
2023-05-18T15:04:52.290Z,48.56
2023-05-18T15:07:20.103Z,48.38
2023-05-18T15:09:47.896Z,48.31
2023-05-18T15:12:17.168Z,47.92
2023-05-18T15:14:46.396Z,47.81
2023-05-18T15:17:15.052Z,47.48
2023-05-18T15:19:42.984Z,47.89
2023-05-18T15:22:10.927Z,47.37
2023-05-18T15:24:38.703Z,47.52
2023-05-18T15:27:07.180Z,47.26
2023-05-18T15:29:35.010Z,47.08
2023-05-18T15:32:05.204Z,46.89
2023-05-18T15:34:33.801Z,46.68
2023-05-18T15:37:01.785Z,46.37
2023-05-18T15:39:31.430Z,46.56
2023-05-18T15:41:59.291Z,46.12
2023-05-18T15:44:28.774Z,46.29
2023-05-18T15:46:57.803Z,46.00
2023-05-18T15:49:27.107Z,45.95
2023-05-18T15:51:54.937Z,45.78
2023-05-18T15:54:22.900Z,45.70
2023-05-18T15:56:51.013Z,45.36
2023-05-18T15:59:18.826Z,45.21
2023-05-18T16:01:46.817Z,45.16
2023-05-18T16:04:14.748Z,45.06
2023-05-18T16:06:43.955Z,44.84
2023-05-18T16:09:12.198Z,44.97
2023-05-18T16:11:40.099Z,44.96
2023-05-18T16:14:08.103Z,44.36
2023-05-18T16:16:36.172Z,44.57
2023-05-18T16:19:05.521Z,44.46
2023-05-18T16:21:33.580Z,44.22
2023-05-18T16:24:02.803Z,44.19
2023-05-18T16:26:30.730Z,43.95
2023-05-18T16:28:58.527Z,43.76
2023-05-18T16:31:26.433Z,43.71
2023-05-18T16:33:54.509Z,43.35
2023-05-18T16:36:24.185Z,43.30
2023-05-18T16:38:54.126Z,43.12
2023-05-18T16:41:23.855Z,43.01
2023-05-18T16:43:51.825Z,42.83
2023-05-18T16:46:19.983Z,42.92
2023-05-18T16:48:48.015Z,42.67
2023-05-18T16:51:16.061Z,42.43
2023-05-18T16:53:44.115Z,42.60
2023-05-18T16:56:12.322Z,42.29
2023-05-18T16:58:41.655Z,42.38
2023-05-18T17:01:19.361Z,42.32
2023-05-18T17:03:55.031Z,42.08
2023-05-18T17:06:23.245Z,42.31
2023-05-18T17:08:57.456Z,42.24
2023-05-18T17:11:26.782Z,42.24
2023-05-18T17:13:57.821Z,42.09
2023-05-18T17:16:26.755Z,41.72
2023-05-18T17:18:54.989Z,41.93
2023-05-18T17:21:23.878Z,41.71
2023-05-18T17:23:51.696Z,42.01
2023-05-18T17:26:20.068Z,41.59
2023-05-18T17:28:48.164Z,41.73
2023-05-18T17:31:17.873Z,41.42
2023-05-18T17:33:47.346Z,41.48
2023-05-18T17:36:17.205Z,41.73
2023-05-18T17:38:45.170Z,41.14
2023-05-18T17:41:14.971Z,41.27
2023-05-18T17:43:43.817Z,41.46
2023-05-18T17:46:11.743Z,41.13
2023-05-18T17:48:41.064Z,41.07
2023-05-18T17:51:09.141Z,41.17
2023-05-18T17:53:41.830Z,41.23
2023-05-18T17:56:10.232Z,40.91
2023-05-18T17:58:39.290Z,41.23
2023-05-18T18:01:08.625Z,40.84
2023-05-18T18:03:37.458Z,41.03
2023-05-18T18:06:07.444Z,40.78
2023-05-18T18:08:36.755Z,40.96
2023-05-18T18:11:06.380Z,40.83
2023-05-18T18:13:36.290Z,40.94
2023-05-18T18:16:04.340Z,40.72
2023-05-18T18:18:32.792Z,40.77
2023-05-18T18:21:00.813Z,40.76
2023-05-18T18:23:29.984Z,40.75
2023-05-18T18:25:57.994Z,40.74
2023-05-18T18:28:25.888Z,40.60
2023-05-18T18:30:53.788Z,40.38
2023-05-18T18:33:21.671Z,40.52
2023-05-18T18:35:49.925Z,40.24
2023-05-18T18:38:17.796Z,40.49
2023-05-18T18:40:48.864Z,40.36
2023-05-18T18:43:16.969Z,40.46
2023-05-18T18:45:44.994Z,40.39
2023-05-18T18:48:12.910Z,39.97
2023-05-18T18:50:40.746Z,40.50
2023-05-18T18:53:08.540Z,39.95
2023-05-18T18:55:36.412Z,39.68
2023-05-18T18:58:05.602Z,40.52
2023-05-18T19:00:33.380Z,39.82
2023-05-18T19:03:01.404Z,40.00
2023-05-18T19:05:30.819Z,39.57
2023-05-18T19:07:58.849Z,39.49
2023-05-18T19:10:26.787Z,40.04
2023-05-18T19:12:54.602Z,39.95
2023-05-18T19:15:23.901Z,39.95
2023-05-18T19:17:53.866Z,39.60
2023-05-18T19:20:22.396Z,39.42
2023-05-18T19:22:50.173Z,39.80
2023-05-18T19:25:17.978Z,39.49
2023-05-18T19:27:46.024Z,39.69
2023-05-18T19:30:16.534Z,39.19
2023-05-18T19:32:45.777Z,39.56
2023-05-18T19:35:13.649Z,39.53
2023-05-18T19:37:41.495Z,39.19
2023-05-18T19:40:09.869Z,39.99
2023-05-18T19:42:37.741Z,40.00
2023-05-18T19:45:07.166Z,39.32
2023-05-18T19:47:35.240Z,39.40
2023-05-18T19:50:06.179Z,39.31
2023-05-18T19:52:34.010Z,39.77
2023-05-18T19:55:02.040Z,40.07
2023-05-18T19:57:30.790Z,39.48
2023-05-18T19:59:59.146Z,39.58
2023-05-18T20:02:27.076Z,39.57
2023-05-18T20:04:55.025Z,39.75
2023-05-18T20:07:24.251Z,39.65
2023-05-18T20:09:54.438Z,39.54
2023-05-18T20:12:22.272Z,39.59
2023-05-18T20:14:51.244Z,39.22
2023-05-18T20:17:19.187Z,39.65
2023-05-18T20:19:50.851Z,39.51
2023-05-18T20:22:18.767Z,39.64
2023-05-18T20:24:48.948Z,39.65
2023-05-18T20:27:17.054Z,39.52
2023-05-18T20:29:45.026Z,39.29
2023-05-18T20:32:12.781Z,39.59
2023-05-18T20:34:41.587Z,39.34
2023-05-18T20:37:11.051Z,39.58
2023-05-18T20:39:39.895Z,39.67
2023-05-18T20:42:12.553Z,39.73
2023-05-18T20:44:40.413Z,39.57
2023-05-18T20:47:08.617Z,39.42
2023-05-18T20:49:36.606Z,39.71
2023-05-18T20:52:04.586Z,39.77
2023-05-18T20:54:32.515Z,39.77
2023-05-18T20:57:00.567Z,39.73
2023-05-18T20:59:29.669Z,39.42
2023-05-18T21:01:57.520Z,39.72
2023-05-18T21:04:25.363Z,39.32
2023-05-18T21:06:53.677Z,39.76
2023-05-18T21:09:21.654Z,39.44
2023-05-18T21:11:49.724Z,39.62
2023-05-18T21:14:18.280Z,39.29
2023-05-18T21:16:47.813Z,39.87
2023-05-18T21:19:16.475Z,39.51
2023-05-18T21:21:44.320Z,39.46
2023-05-18T21:24:12.147Z,39.28
2023-05-18T21:26:40.660Z,39.89
2023-05-18T21:29:09.886Z,39.77
2023-05-18T21:31:37.740Z,39.33
2023-05-18T21:34:08.386Z,40.08
2023-05-18T21:36:36.225Z,39.88
2023-05-18T21:39:06.396Z,40.07
2023-05-18T21:41:35.423Z,40.09
2023-05-18T21:44:05.023Z,39.56
2023-05-18T21:46:34.162Z,40.15
2023-05-18T21:49:02.610Z,39.70
2023-05-18T21:51:32.413Z,39.34
2023-05-18T21:54:00.831Z,40.04
2023-05-18T21:56:29.384Z,39.91
2023-05-18T21:58:58.013Z,39.29
2023-05-18T22:01:25.943Z,40.10
2023-05-18T22:03:54.330Z,39.42
2023-05-18T22:06:22.453Z,39.65
2023-05-18T22:08:51.915Z,40.06
2023-05-18T22:11:19.721Z,40.09
2023-05-18T22:13:47.473Z,39.98
2023-05-18T22:16:15.571Z,39.80
2023-05-18T22:18:43.369Z,40.18
2023-05-18T22:21:11.776Z,40.15
2023-05-18T22:23:39.830Z,40.43
2023-05-18T22:26:08.959Z,40.35
2023-05-18T22:28:37.003Z,39.73
2023-05-18T22:31:04.936Z,40.23
2023-05-18T22:33:32.872Z,40.02
2023-05-18T22:36:00.954Z,40.19
2023-05-18T22:38:28.860Z,40.48
2023-05-18T22:40:56.937Z,39.70
2023-05-18T22:43:26.432Z,40.37
2023-05-18T22:45:54.347Z,40.45
2023-05-18T22:48:22.181Z,40.11
2023-05-18T22:50:50.036Z,40.10
2023-05-18T22:53:17.955Z,40.15
2023-05-18T22:55:46.267Z,40.08
2023-05-18T22:58:14.345Z,40.55
2023-05-18T23:00:43.482Z,40.10
2023-05-18T23:03:11.509Z,40.46
2023-05-18T23:05:43.406Z,40.31
2023-05-18T23:08:14.174Z,40.50
2023-05-18T23:10:44.303Z,40.33
2023-05-18T23:13:16.278Z,40.37
2023-05-18T23:15:47.665Z,40.45
2023-05-18T23:18:15.536Z,40.89
2023-05-18T23:20:43.586Z,40.49
2023-05-18T23:23:11.473Z,40.75
2023-05-18T23:25:39.281Z,40.86
2023-05-18T23:28:07.400Z,40.93
2023-05-18T23:30:35.206Z,40.64
2023-05-18T23:33:05.085Z,40.58
2023-05-18T23:35:33.475Z,40.44
2023-05-18T23:38:06.399Z,40.84
2023-05-18T23:40:34.773Z,40.64
2023-05-18T23:43:03.260Z,40.89
2023-05-18T23:45:31.755Z,40.74
2023-05-18T23:48:00.168Z,41.01
2023-05-18T23:50:30.348Z,40.92
2023-05-18T23:53:02.115Z,41.01
2023-05-18T23:55:30.830Z,41.01
2023-05-18T23:57:59.643Z,40.99
